sensor_id;sensor_type;location;lat;lon;timestamp;pressure;altitude;pressure_sealevel;temperature;humidity
12969;BME280;6549;53.128;8.182;2023-07-31T00:02:55;100573.47;;;16.17;100.00
12969;BME280;6549;53.128;8.182;2023-07-31T00:05:56;100565.25;;;16.13;100.00
12969;BME280;6549;53.128;8.182;2023-07-31T00:08:56;100573.19;;;16.11;100.00
12969;BME280;6549;53.128;8.182;2023-07-31T00:11:56;100573.97;;;16.12;100.00
12969;BME280;6549;53.128;8.182;2023-07-31T00:14:56;100577.19;;;16.10;100.00
12969;BME280;6549;53.128;8.182;2023-07-31T00:17:57;100570.16;;;16.06;100.00
12969;BME280;6549;53.128;8.182;2023-07-31T00:20:57;100564.31;;;16.00;100.00
12969;BME280;6549;53.128;8.182;2023-07-31T00:23:57;100563.91;;;16.02;100.00
12969;BME280;6549;53.128;8.182;2023-07-31T00:26:58;100565.81;;;16.05;100.00
12969;BME280;6549;53.128;8.182;2023-07-31T00:29:58;100554.09;;;15.97;100.00
12969;BME280;6549;53.128;8.182;2023-07-31T00:32:58;100555.00;;;15.91;100.00
12969;BME280;6549;53.128;8.182;2023-07-31T00:35:59;100551.53;;;15.87;100.00
12969;BME280;6549;53.128;8.182;2023-07-31T00:38:59;100549.97;;;15.86;100.00
12969;BME280;6549;53.128;8.182;2023-07-31T00:41:59;100536.91;;;15.86;100.00
12969;BME280;6549;53.128;8.182;2023-07-31T00:45:00;100530.22;;;15.84;100.00
12969;BME280;6549;53.128;8.182;2023-07-31T00:48:01;100529.88;;;15.82;100.00
12969;BME280;6549;53.128;8.182;2023-07-31T00:51:01;100535.47;;;15.78;100.00
12969;BME280;6549;53.128;8.182;2023-07-31T00:54:02;100545.00;;;15.77;100.00
12969;BME280;6549;53.128;8.182;2023-07-31T00:57:03;100548.53;;;15.78;100.00
12969;BME280;6549;53.128;8.182;2023-07-31T01:00:04;100550.53;;;15.77;100.00
12969;BME280;6549;53.128;8.182;2023-07-31T01:03:04;100554.88;;;15.78;100.00
12969;BME280;6549;53.128;8.182;2023-07-31T01:06:22;100548.91;;;15.80;100.00
12969;BME280;6549;53.128;8.182;2023-07-31T01:12:27;100554.94;;;15.75;100.00
12969;BME280;6549;53.128;8.182;2023-07-31T01:15:29;100548.63;;;15.74;100.00
12969;BME280;6549;53.128;8.182;2023-07-31T01:18:29;100546.63;;;15.75;100.00
12969;BME280;6549;53.128;8.182;2023-07-31T01:21:47;100540.72;;;15.72;100.00
12969;BME280;6549;53.128;8.182;2023-07-31T01:25:00;100545.94;;;15.70;100.00
12969;BME280;6549;53.128;8.182;2023-07-31T01:28:13;100540.50;;;15.63;100.00
12969;BME280;6549;53.128;8.182;2023-07-31T01:31:23;100541.28;;;15.64;100.00
12969;BME280;6549;53.128;8.182;2023-07-31T01:34:24;100529.19;;;15.54;100.00
12969;BME280;6549;53.128;8.182;2023-07-31T01:37:29;100528.13;;;15.48;100.00
12969;BME280;6549;53.128;8.182;2023-07-31T01:40:32;100521.13;;;15.40;100.00
12969;BME280;6549;53.128;8.182;2023-07-31T01:43:32;100511.28;;;15.39;100.00
12969;BME280;6549;53.128;8.182;2023-07-31T01:46:33;100510.19;;;15.33;100.00
12969;BME280;6549;53.128;8.182;2023-07-31T01:49:33;100504.72;;;15.29;100.00
12969;BME280;6549;53.128;8.182;2023-07-31T01:52:33;100499.25;;;15.26;100.00
12969;BME280;6549;53.128;8.182;2023-07-31T01:55:34;100502.06;;;15.22;100.00
12969;BME280;6549;53.128;8.182;2023-07-31T01:58:34;100498.97;;;15.20;100.00
12969;BME280;6549;53.128;8.182;2023-07-31T02:01:34;100494.31;;;15.14;100.00
12969;BME280;6549;53.128;8.182;2023-07-31T02:04:35;100488.06;;;15.10;100.00
12969;BME280;6549;53.128;8.182;2023-07-31T02:07:35;100486.16;;;15.07;100.00
12969;BME280;6549;53.128;8.182;2023-07-31T02:10:35;100487.34;;;15.06;100.00
12969;BME280;6549;53.128;8.182;2023-07-31T02:13:36;100491.81;;;15.00;100.00
12969;BME280;6549;53.128;8.182;2023-07-31T02:16:36;100498.19;;;14.97;100.00
12969;BME280;6549;53.128;8.182;2023-07-31T02:19:36;100494.28;;;14.94;100.00
12969;BME280;6549;53.128;8.182;2023-07-31T02:22:37;100499.03;;;14.94;100.00
12969;BME280;6549;53.128;8.182;2023-07-31T02:25:37;100494.69;;;14.93;100.00
12969;BME280;6549;53.128;8.182;2023-07-31T02:28:37;100497.84;;;14.95;100.00
12969;BME280;6549;53.128;8.182;2023-07-31T02:31:37;100488.44;;;14.89;100.00
12969;BME280;6549;53.128;8.182;2023-07-31T02:34:38;100490.06;;;14.86;100.00
12969;BME280;6549;53.128;8.182;2023-07-31T02:37:38;100482.56;;;14.87;100.00
12969;BME280;6549;53.128;8.182;2023-07-31T02:40:40;100486.06;;;14.91;100.00
12969;BME280;6549;53.128;8.182;2023-07-31T02:43:41;100478.22;;;14.86;100.00
12969;BME280;6549;53.128;8.182;2023-07-31T02:46:41;100478.69;;;14.80;100.00
12969;BME280;6549;53.128;8.182;2023-07-31T02:49:42;100476.78;;;14.77;100.00
12969;BME280;6549;53.128;8.182;2023-07-31T02:52:42;100481.09;;;14.78;100.00
12969;BME280;6549;53.128;8.182;2023-07-31T02:55:42;100479.19;;;14.75;100.00
12969;BME280;6549;53.128;8.182;2023-07-31T02:58:43;100475.22;;;14.76;100.00
12969;BME280;6549;53.128;8.182;2023-07-31T03:01:43;100481.94;;;14.75;100.00
12969;BME280;6549;53.128;8.182;2023-07-31T03:04:43;100486.28;;;14.76;100.00
12969;BME280;6549;53.128;8.182;2023-07-31T03:07:44;100478.03;;;14.73;100.00
12969;BME280;6549;53.128;8.182;2023-07-31T03:10:44;100482.41;;;14.70;100.00
12969;BME280;6549;53.128;8.182;2023-07-31T03:13:44;100470.94;;;14.72;100.00
12969;BME280;6549;53.128;8.182;2023-07-31T03:16:44;100476.81;;;14.74;100.00
12969;BME280;6549;53.128;8.182;2023-07-31T03:19:45;100470.94;;;14.72;100.00
12969;BME280;6549;53.128;8.182;2023-07-31T03:22:45;100471.72;;;14.72;100.00
12969;BME280;6549;53.128;8.182;2023-07-31T03:26:02;100471.72;;;14.72;100.00
12969;BME280;6549;53.128;8.182;2023-07-31T03:29:05;100464.94;;;14.77;100.00
12969;BME280;6549;53.128;8.182;2023-07-31T03:32:06;100470.94;;;14.72;100.00
12969;BME280;6549;53.128;8.182;2023-07-31T03:35:06;100471.34;;;14.70;100.00
12969;BME280;6549;53.128;8.182;2023-07-31T03:38:07;100473.78;;;14.68;100.00
12969;BME280;6549;53.128;8.182;2023-07-31T03:41:07;100465.03;;;14.70;100.00
12969;BME280;6549;53.128;8.182;2023-07-31T03:44:07;100467.03;;;14.69;100.00
12969;BME280;6549;53.128;8.182;2023-07-31T03:47:08;100459.56;;;14.66;100.00
12969;BME280;6549;53.128;8.182;2023-07-31T03:50:08;100459.22;;;14.64;100.00
12969;BME280;6549;53.128;8.182;2023-07-31T03:53:09;100457.66;;;14.63;100.00
12969;BME280;6549;53.128;8.182;2023-07-31T03:56:09;100448.50;;;14.66;100.00
12969;BME280;6549;53.128;8.182;2023-07-31T03:59:10;100448.50;;;14.66;100.00
12969;BME280;6549;53.128;8.182;2023-07-31T04:02:10;100444.13;;;14.69;100.00
12969;BME280;6549;53.128;8.182;2023-07-31T04:05:10;100449.22;;;14.70;100.00
12969;BME280;6549;53.128;8.182;2023-07-31T04:08:11;100439.38;;;14.69;100.00
12969;BME280;6549;53.128;8.182;2023-07-31T04:11:11;100438.94;;;14.71;100.00
12969;BME280;6549;53.128;8.182;2023-07-31T04:14:12;100441.72;;;14.71;100.00
12969;BME280;6549;53.128;8.182;2023-07-31T04:17:12;100432.63;;;14.70;100.00
12969;BME280;6549;53.128;8.182;2023-07-31T04:20:13;100433.00;;;14.72;100.00
12969;BME280;6549;53.128;8.182;2023-07-31T04:23:13;100431.06;;;14.69;100.00
12969;BME280;6549;53.128;8.182;2023-07-31T04:26:13;100437.81;;;14.68;100.00
12969;BME280;6549;53.128;8.182;2023-07-31T04:29:14;100435.88;;;14.65;100.00
12969;BME280;6549;53.128;8.182;2023-07-31T04:32:14;100429.16;;;14.66;100.00
12969;BME280;6549;53.128;8.182;2023-07-31T04:35:16;100433.56;;;14.64;100.00
12969;BME280;6549;53.128;8.182;2023-07-31T04:38:17;100434.63;;;14.70;100.00
12969;BME280;6549;53.128;8.182;2023-07-31T04:41:17;100436.59;;;14.69;100.00
12969;BME280;6549;53.128;8.182;2023-07-31T04:44:17;100430.34;;;14.65;100.00
12969;BME280;6549;53.128;8.182;2023-07-31T04:47:18;100433.06;;;14.69;100.00
12969;BME280;6549;53.128;8.182;2023-07-31T04:50:18;100426.31;;;14.70;100.00
12969;BME280;6549;53.128;8.182;2023-07-31T04:53:18;100439.66;;;14.75;100.00
12969;BME280;6549;53.128;8.182;2023-07-31T04:56:19;100432.53;;;14.77;100.00
12969;BME280;6549;53.128;8.182;2023-07-31T04:59:19;100423.00;;;14.78;100.00
12969;BME280;6549;53.128;8.182;2023-07-31T05:02:19;100433.66;;;14.80;100.00
12969;BME280;6549;53.128;8.182;2023-07-31T05:05:20;100427.72;;;14.81;100.00
12969;BME280;6549;53.128;8.182;2023-07-31T05:08:20;100426.16;;;14.80;100.00
12969;BME280;6549;53.128;8.182;2023-07-31T05:11:20;100424.94;;;14.81;100.00
12969;BME280;6549;53.128;8.182;2023-07-31T05:14:21;100417.00;;;14.83;100.00
12969;BME280;6549;53.128;8.182;2023-07-31T05:17:21;100419.75;;;14.83;100.00
12969;BME280;6549;53.128;8.182;2023-07-31T05:20:21;100420.53;;;14.84;100.00
12969;BME280;6549;53.128;8.182;2023-07-31T05:23:22;100414.84;;;14.95;100.00
12969;BME280;6549;53.128;8.182;2023-07-31T05:26:22;100415.25;;;14.93;100.00
12969;BME280;6549;53.128;8.182;2023-07-31T05:29:22;100411.59;;;15.00;100.00
12969;BME280;6549;53.128;8.182;2023-07-31T05:32:23;100412.78;;;14.99;100.00
12969;BME280;6549;53.128;8.182;2023-07-31T05:35:23;100406.03;;;15.00;100.00
12969;BME280;6549;53.128;8.182;2023-07-31T05:38:23;100421.41;;;15.01;100.00
12969;BME280;6549;53.128;8.182;2023-07-31T05:41:24;100408.75;;;15.03;100.00
12969;BME280;6549;53.128;8.182;2023-07-31T05:44:24;100405.91;;;15.07;100.00
12969;BME280;6549;53.128;8.182;2023-07-31T05:47:24;100402.28;;;15.10;100.00
12969;BME280;6549;53.128;8.182;2023-07-31T05:50:25;100388.88;;;15.08;100.00
12969;BME280;6549;53.128;8.182;2023-07-31T05:53:25;100385.66;;;15.10;100.00
12969;BME280;6549;53.128;8.182;2023-07-31T05:56:25;100390.38;;;15.13;100.00
12969;BME280;6549;53.128;8.182;2023-07-31T05:59:27;100384.69;;;15.20;100.00
12969;BME280;6549;53.128;8.182;2023-07-31T06:02:27;100376.38;;;15.20;100.00
12969;BME280;6549;53.128;8.182;2023-07-31T06:05:28;100382.28;;;15.22;100.00
12969;BME280;6549;53.128;8.182;2023-07-31T06:08:30;100386.59;;;15.23;100.00
12969;BME280;6549;53.128;8.182;2023-07-31T06:11:30;100376.69;;;15.25;100.00
12969;BME280;6549;53.128;8.182;2023-07-31T06:14:31;100383.34;;;15.28;100.00
12969;BME280;6549;53.128;8.182;2023-07-31T06:17:31;100370.56;;;15.34;100.00
12969;BME280;6549;53.128;8.182;2023-07-31T06:20:31;100369.63;;;15.41;100.00
12969;BME280;6549;53.128;8.182;2023-07-31T06:23:32;100368.78;;;15.44;100.00
12969;BME280;6549;53.128;8.182;2023-07-31T06:26:32;100367.22;;;15.43;100.00
12969;BME280;6549;53.128;8.182;2023-07-31T06:29:32;100364.75;;;15.48;100.00
12969;BME280;6549;53.128;8.182;2023-07-31T06:32:33;100375.75;;;15.52;100.00
12969;BME280;6549;53.128;8.182;2023-07-31T06:35:33;100367.78;;;15.54;100.00
12969;BME280;6549;53.128;8.182;2023-07-31T06:38:33;100378.03;;;15.57;100.00
12969;BME280;6549;53.128;8.182;2023-07-31T06:41:34;100373.34;;;15.54;100.00
12969;BME280;6549;53.128;8.182;2023-07-31T06:44:34;100366.97;;;15.57;100.00
12969;BME280;6549;53.128;8.182;2023-07-31T06:47:34;100360.13;;;15.61;100.00
12969;BME280;6549;53.128;8.182;2023-07-31T06:50:35;100361.63;;;15.66;100.00
12969;BME280;6549;53.128;8.182;2023-07-31T06:53:35;100354.00;;;15.70;100.00
12969;BME280;6549;53.128;8.182;2023-07-31T06:56:35;100361.53;;;15.69;100.00
12969;BME280;6549;53.128;8.182;2023-07-31T06:59:36;100353.91;;;15.73;100.00
12969;BME280;6549;53.128;8.182;2023-07-31T07:02:36;100357.03;;;15.76;100.00
12969;BME280;6549;53.128;8.182;2023-07-31T07:05:36;100346.41;;;15.74;100.00
12969;BME280;6549;53.128;8.182;2023-07-31T07:08:37;100345.94;;;15.76;100.00
12969;BME280;6549;53.128;8.182;2023-07-31T07:11:37;100340.34;;;15.79;100.00
12969;BME280;6549;53.128;8.182;2023-07-31T07:14:38;100347.78;;;15.82;100.00
12969;BME280;6549;53.128;8.182;2023-07-31T07:17:38;100333.44;;;15.87;100.00
12969;BME280;6549;53.128;8.182;2023-07-31T07:20:38;100332.91;;;15.92;100.00
12969;BME280;6549;53.128;8.182;2023-07-31T07:23:38;100332.03;;;15.95;100.00
12969;BME280;6549;53.128;8.182;2023-07-31T07:26:39;100335.16;;;15.97;100.00
12969;BME280;6549;53.128;8.182;2023-07-31T07:29:39;100334.22;;;16.04;100.00
12969;BME280;6549;53.128;8.182;2023-07-31T07:32:40;100330.22;;;16.05;100.00
12969;BME280;6549;53.128;8.182;2023-07-31T07:35:40;100333.50;;;16.16;100.00
12969;BME280;6549;53.128;8.182;2023-07-31T07:38:40;100332.72;;;16.15;100.00
12969;BME280;6549;53.128;8.182;2023-07-31T07:41:41;100330.56;;;16.23;100.00
12969;BME280;6549;53.128;8.182;2023-07-31T07:44:41;100332.91;;;16.25;100.00
12969;BME280;6549;53.128;8.182;2023-07-31T07:47:42;100325.03;;;16.23;100.00
12969;BME280;6549;53.128;8.182;2023-07-31T07:50:42;100330.81;;;16.29;100.00
12969;BME280;6549;53.128;8.182;2023-07-31T07:53:42;100317.91;;;16.38;100.00
12969;BME280;6549;53.128;8.182;2023-07-31T07:56:43;100322.91;;;16.43;100.00
12969;BME280;6549;53.128;8.182;2023-07-31T07:59:43;100323.44;;;16.54;100.00
12969;BME280;6549;53.128;8.182;2023-07-31T08:02:44;100322.31;;;16.68;100.00
12969;BME280;6549;53.128;8.182;2023-07-31T08:05:44;100316.34;;;16.82;100.00
12969;BME280;6549;53.128;8.182;2023-07-31T08:08:45;100306.91;;;16.80;100.00
12969;BME280;6549;53.128;8.182;2023-07-31T08:11:45;100301.69;;;16.82;100.00
12969;BME280;6549;53.128;8.182;2023-07-31T08:14:45;100289.06;;;16.81;100.00
12969;BME280;6549;53.128;8.182;2023-07-31T08:17:46;100284.88;;;16.89;100.00
12969;BME280;6549;53.128;8.182;2023-07-31T08:20:46;100276.22;;;16.99;100.00
12969;BME280;6549;53.128;8.182;2023-07-31T08:23:46;100280.50;;;17.17;100.00
12969;BME280;6549;53.128;8.182;2023-07-31T08:26:47;100277.47;;;17.11;100.00
12969;BME280;6549;53.128;8.182;2023-07-31T08:29:47;100267.28;;;17.08;100.00
12969;BME280;6549;53.128;8.182;2023-07-31T08:32:48;100255.16;;;17.02;100.00
12969;BME280;6549;53.128;8.182;2023-07-31T08:35:48;100251.72;;;17.11;100.00
12969;BME280;6549;53.128;8.182;2023-07-31T08:38:49;100251.63;;;17.27;100.00
12969;BME280;6549;53.128;8.182;2023-07-31T08:41:50;100248.28;;;17.44;100.00
12969;BME280;6549;53.128;8.182;2023-07-31T08:44:50;100247.97;;;17.42;100.00
12969;BME280;6549;53.128;8.182;2023-07-31T08:47:52;100248.75;;;17.30;100.00
12969;BME280;6549;53.128;8.182;2023-07-31T08:50:52;100250.41;;;17.28;100.00
12969;BME280;6549;53.128;8.182;2023-07-31T08:53:53;100264.41;;;17.24;100.00
12969;BME280;6549;53.128;8.182;2023-07-31T08:56:54;100260.16;;;17.20;100.00
12969;BME280;6549;53.128;8.182;2023-07-31T08:59:54;100260.81;;;17.11;100.00
12969;BME280;6549;53.128;8.182;2023-07-31T09:03:00;100261.78;;;17.04;100.00
12969;BME280;6549;53.128;8.182;2023-07-31T09:06:04;100264.00;;;16.97;100.00
12969;BME280;6549;53.128;8.182;2023-07-31T09:09:06;100257.03;;;17.05;100.00
12969;BME280;6549;53.128;8.182;2023-07-31T09:12:07;100255.94;;;17.02;100.00
12969;BME280;6549;53.128;8.182;2023-07-31T09:15:07;100254.56;;;16.94;100.00
12969;BME280;6549;53.128;8.182;2023-07-31T09:18:09;100253.44;;;16.92;100.00
12969;BME280;6549;53.128;8.182;2023-07-31T09:21:09;100239.91;;;16.94;100.00
12969;BME280;6549;53.128;8.182;2023-07-31T09:24:24;100224.25;;;17.00;100.00
12969;BME280;6549;53.128;8.182;2023-07-31T09:27:25;100229.50;;;16.98;100.00
12969;BME280;6549;53.128;8.182;2023-07-31T09:30:25;100236.16;;;17.00;100.00
12969;BME280;6549;53.128;8.182;2023-07-31T09:33:26;100234.69;;;16.96;100.00
12969;BME280;6549;53.128;8.182;2023-07-31T09:36:29;100227.50;;;16.98;100.00
12969;BME280;6549;53.128;8.182;2023-07-31T09:39:30;100214.59;;;17.04;100.00
12969;BME280;6549;53.128;8.182;2023-07-31T09:42:31;100211.06;;;17.04;100.00
12969;BME280;6549;53.128;8.182;2023-07-31T09:45:35;100212.19;;;17.06;100.00
12969;BME280;6549;53.128;8.182;2023-07-31T09:48:39;100206.41;;;17.14;100.00
12969;BME280;6549;53.128;8.182;2023-07-31T09:51:41;100204.97;;;17.22;100.00
12969;BME280;6549;53.128;8.182;2023-07-31T09:54:41;100198.31;;;17.32;100.00
12969;BME280;6549;53.128;8.182;2023-07-31T09:57:45;100189.66;;;17.30;100.00
12969;BME280;6549;53.128;8.182;2023-07-31T10:00:46;100198.84;;;17.39;100.00
12969;BME280;6549;53.128;8.182;2023-07-31T10:03:47;100186.75;;;17.46;100.00
12969;BME280;6549;53.128;8.182;2023-07-31T10:06:49;100188.44;;;17.43;100.00
12969;BME280;6549;53.128;8.182;2023-07-31T10:09:51;100191.28;;;17.52;100.00
12969;BME280;6549;53.128;8.182;2023-07-31T10:12:55;100179.06;;;17.63;100.00
12969;BME280;6549;53.128;8.182;2023-07-31T10:15:58;100177.72;;;17.55;100.00
12969;BME280;6549;53.128;8.182;2023-07-31T10:18:59;100180.84;;;17.44;100.00
12969;BME280;6549;53.128;8.182;2023-07-31T10:22:00;100186.97;;;17.51;100.00
12969;BME280;6549;53.128;8.182;2023-07-31T10:25:02;100174.06;;;17.58;100.00
12969;BME280;6549;53.128;8.182;2023-07-31T10:28:02;100176.41;;;17.72;100.00
12969;BME280;6549;53.128;8.182;2023-07-31T10:31:03;100172.41;;;17.73;100.00
12969;BME280;6549;53.128;8.182;2023-07-31T10:34:04;100168.16;;;17.81;100.00
12969;BME280;6549;53.128;8.182;2023-07-31T10:40:26;100150.22;;;18.16;100.00
12969;BME280;6549;53.128;8.182;2023-07-31T10:43:27;100156.50;;;18.08;100.00
12969;BME280;6549;53.128;8.182;2023-07-31T10:46:27;100157.59;;;18.10;100.00
12969;BME280;6549;53.128;8.182;2023-07-31T10:49:29;100158.84;;;18.09;100.00
12969;BME280;6549;53.128;8.182;2023-07-31T10:52:34;100154.56;;;18.17;100.00
12969;BME280;6549;53.128;8.182;2023-07-31T10:55:42;100154.13;;;18.19;100.00
12969;BME280;6549;53.128;8.182;2023-07-31T10:58:44;100147.38;;;18.07;100.00
12969;BME280;6549;53.128;8.182;2023-07-31T11:01:56;100153.84;;;18.04;100.00
12969;BME280;6549;53.128;8.182;2023-07-31T11:05:07;100148.81;;;18.12;100.00
12969;BME280;6549;53.128;8.182;2023-07-31T11:08:24;100142.22;;;18.18;100.00
12969;BME280;6549;53.128;8.182;2023-07-31T11:11:25;100144.09;;;18.21;100.00
12969;BME280;6549;53.128;8.182;2023-07-31T11:14:25;100151.53;;;18.24;100.00
12969;BME280;6549;53.128;8.182;2023-07-31T11:17:26;100138.75;;;18.27;100.00
12969;BME280;6549;53.128;8.182;2023-07-31T11:20:26;100137.47;;;18.28;100.00
12969;BME280;6549;53.128;8.182;2023-07-31T11:23:27;100134.97;;;18.21;100.00
12969;BME280;6549;53.128;8.182;2023-07-31T11:26:27;100141.03;;;18.28;100.00
12969;BME280;6549;53.128;8.182;2023-07-31T11:29:27;100146.88;;;18.21;100.00
12969;BME280;6549;53.128;8.182;2023-07-31T11:32:29;100143.75;;;18.19;100.00
12969;BME280;6549;53.128;8.182;2023-07-31T11:35:33;100149.44;;;18.16;100.00
12969;BME280;6549;53.128;8.182;2023-07-31T11:38:34;100137.44;;;18.19;100.00
12969;BME280;6549;53.128;8.182;2023-07-31T11:41:34;100135.19;;;18.26;100.00
12969;BME280;6549;53.128;8.182;2023-07-31T11:44:40;100134.59;;;18.31;100.00
12969;BME280;6549;53.128;8.182;2023-07-31T11:47:41;100131.25;;;18.36;100.00
12969;BME280;6549;53.128;8.182;2023-07-31T11:50:41;100128.63;;;18.42;100.00
12969;BME280;6549;53.128;8.182;2023-07-31T11:53:49;100123.25;;;18.48;100.00
12969;BME280;6549;53.128;8.182;2023-07-31T11:56:50;100120.34;;;18.51;100.00
12969;BME280;6549;53.128;8.182;2023-07-31T11:59:51;100128.00;;;18.60;100.00
12969;BME280;6549;53.128;8.182;2023-07-31T12:02:52;100129.41;;;18.64;100.00
12969;BME280;6549;53.128;8.182;2023-07-31T12:05:53;100118.81;;;18.72;100.00
12969;BME280;6549;53.128;8.182;2023-07-31T12:09:00;100112.56;;;18.68;100.00
12969;BME280;6549;53.128;8.182;2023-07-31T12:12:01;100119.84;;;18.65;100.00
12969;BME280;6549;53.128;8.182;2023-07-31T12:15:02;100120.28;;;18.64;100.00
12969;BME280;6549;53.128;8.182;2023-07-31T12:18:10;100110.06;;;18.61;100.00
12969;BME280;6549;53.128;8.182;2023-07-31T12:21:11;100110.91;;;18.70;100.00
12969;BME280;6549;53.128;8.182;2023-07-31T12:24:11;100108.31;;;18.76;100.00
12969;BME280;6549;53.128;8.182;2023-07-31T12:27:13;100104.91;;;18.81;100.00
12969;BME280;6549;53.128;8.182;2023-07-31T12:30:41;100095.66;;;18.84;100.00
12969;BME280;6549;53.128;8.182;2023-07-31T12:33:41;100082.38;;;18.88;100.00
12969;BME280;6549;53.128;8.182;2023-07-31T12:36:42;100074.50;;;18.96;100.00
12969;BME280;6549;53.128;8.182;2023-07-31T12:39:43;100073.31;;;19.06;100.00
12969;BME280;6549;53.128;8.182;2023-07-31T12:42:43;100069.75;;;19.05;100.00
12969;BME280;6549;53.128;8.182;2023-07-31T12:45:44;100071.28;;;19.06;100.00
12969;BME280;6549;53.128;8.182;2023-07-31T12:48:45;100070.38;;;19.09;100.00
12969;BME280;6549;53.128;8.182;2023-07-31T12:51:45;100074.88;;;19.16;100.00
12969;BME280;6549;53.128;8.182;2023-07-31T12:54:46;100075.34;;;19.23;100.00
12969;BME280;6549;53.128;8.182;2023-07-31T12:57:46;100070.38;;;19.09;100.00
12969;BME280;6549;53.128;8.182;2023-07-31T13:00:46;100070.31;;;18.91;100.00
12969;BME280;6549;53.128;8.182;2023-07-31T13:03:46;100068.91;;;18.87;100.00
12969;BME280;6549;53.128;8.182;2023-07-31T13:06:47;100069.03;;;18.83;100.00
12969;BME280;6549;53.128;8.182;2023-07-31T13:09:48;100066.56;;;18.76;100.00
12969;BME280;6549;53.128;8.182;2023-07-31T13:12:48;100070.28;;;18.82;100.00
12969;BME280;6549;53.128;8.182;2023-07-31T13:15:48;100072.16;;;18.85;100.00
12969;BME280;6549;53.128;8.182;2023-07-31T13:18:49;100053.91;;;18.84;100.00
12969;BME280;6549;53.128;8.182;2023-07-31T13:21:49;100066.44;;;18.89;100.00
12969;BME280;6549;53.128;8.182;2023-07-31T13:24:49;100061.03;;;18.85;100.00
12969;BME280;6549;53.128;8.182;2023-07-31T13:27:50;100065.66;;;18.88;100.00
12969;BME280;6549;53.128;8.182;2023-07-31T13:30:50;100072.13;;;18.76;100.00
12969;BME280;6549;53.128;8.182;2023-07-31T13:33:50;100069.59;;;18.69;100.00
12969;BME280;6549;53.128;8.182;2023-07-31T13:36:51;100065.09;;;18.62;100.00
12969;BME280;6549;53.128;8.182;2023-07-31T13:39:51;100062.28;;;18.53;100.00
12969;BME280;6549;53.128;8.182;2023-07-31T13:42:51;100067.63;;;18.48;100.00
12969;BME280;6549;53.128;8.182;2023-07-31T13:45:52;100060.97;;;18.45;100.00
12969;BME280;6549;53.128;8.182;2023-07-31T13:48:53;100068.97;;;18.43;100.00
12969;BME280;6549;53.128;8.182;2023-07-31T13:51:55;100068.34;;;18.39;100.00
12969;BME280;6549;53.128;8.182;2023-07-31T13:54:56;100071.56;;;18.37;100.00
12969;BME280;6549;53.128;8.182;2023-07-31T13:57:56;100069.72;;;18.34;100.00
12969;BME280;6549;53.128;8.182;2023-07-31T14:00:56;100078.63;;;18.29;100.00
12969;BME280;6549;53.128;8.182;2023-07-31T14:03:57;100069.50;;;18.29;100.00
12969;BME280;6549;53.128;8.182;2023-07-31T14:06:58;100063.75;;;18.23;100.00
12969;BME280;6549;53.128;8.182;2023-07-31T14:09:58;100049.22;;;18.19;100.00
12969;BME280;6549;53.128;8.182;2023-07-31T14:12:59;100058.47;;;18.16;100.00
12969;BME280;6549;53.128;8.182;2023-07-31T14:15:59;100066.50;;;18.14;100.00
12969;BME280;6549;53.128;8.182;2023-07-31T14:18:59;100066.50;;;18.14;100.00
12969;BME280;6549;53.128;8.182;2023-07-31T14:22:00;100079.56;;;18.26;100.00
12969;BME280;6549;53.128;8.182;2023-07-31T14:25:00;100086.97;;;18.29;100.00
12969;BME280;6549;53.128;8.182;2023-07-31T14:28:01;100097.44;;;18.47;100.00
12969;BME280;6549;53.128;8.182;2023-07-31T14:31:01;100111.03;;;18.67;100.00
12969;BME280;6549;53.128;8.182;2023-07-31T14:34:01;100117.72;;;18.78;100.00
12969;BME280;6549;53.128;8.182;2023-07-31T14:37:02;100115.28;;;18.80;100.00
12969;BME280;6549;53.128;8.182;2023-07-31T14:40:02;100111.38;;;18.78;100.00
12969;BME280;6549;53.128;8.182;2023-07-31T14:43:03;100096.09;;;18.82;100.00
12969;BME280;6549;53.128;8.182;2023-07-31T14:46:03;100097.56;;;18.96;100.00
12969;BME280;6549;53.128;8.182;2023-07-31T14:49:03;100071.91;;;19.01;100.00
12969;BME280;6549;53.128;8.182;2023-07-31T14:52:04;100063.88;;;19.12;100.00
12969;BME280;6549;53.128;8.182;2023-07-31T14:55:04;100072.69;;;19.11;100.00
12969;BME280;6549;53.128;8.182;2023-07-31T14:58:05;100056.44;;;19.09;100.00
12969;BME280;6549;53.128;8.182;2023-07-31T15:01:06;100054.09;;;19.08;100.00
12969;BME280;6549;53.128;8.182;2023-07-31T15:04:06;100057.06;;;19.13;100.00
12969;BME280;6549;53.128;8.182;2023-07-31T15:07:06;100054.28;;;19.13;100.00
12969;BME280;6549;53.128;8.182;2023-07-31T15:10:07;100051.66;;;19.10;100.00
12969;BME280;6549;53.128;8.182;2023-07-31T15:13:08;100056.16;;;19.07;100.00
12969;BME280;6549;53.128;8.182;2023-07-31T15:16:08;100061.72;;;19.16;100.00
12969;BME280;6549;53.128;8.182;2023-07-31T15:19:08;100068.56;;;19.24;100.00
12969;BME280;6549;53.128;8.182;2023-07-31T15:22:10;100059.13;;;19.31;100.00
12969;BME280;6549;53.128;8.182;2023-07-31T15:25:10;100056.78;;;19.29;100.00
12969;BME280;6549;53.128;8.182;2023-07-31T15:28:11;100060.66;;;19.23;100.00
12969;BME280;6549;53.128;8.182;2023-07-31T15:31:11;100051.81;;;19.15;100.00
12969;BME280;6549;53.128;8.182;2023-07-31T15:34:13;100050.56;;;19.07;100.00
12969;BME280;6549;53.128;8.182;2023-07-31T15:37:13;100065.72;;;19.06;100.00
12969;BME280;6549;53.128;8.182;2023-07-31T15:40:14;100061.06;;;19.03;100.00
12969;BME280;6549;53.128;8.182;2023-07-31T15:43:19;100059.19;;;19.00;100.00
12969;BME280;6549;53.128;8.182;2023-07-31T15:46:19;100052.84;;;19.00;100.00
12969;BME280;6549;53.128;8.182;2023-07-31T15:49:19;100054.06;;;18.99;100.00
12969;BME280;6549;53.128;8.182;2023-07-31T15:52:20;100051.47;;;19.04;100.00
12969;BME280;6549;53.128;8.182;2023-07-31T15:55:20;100049.66;;;19.10;100.00